createdAt,value
2023-12-21T00:00:12.652Z,0.19
2023-12-21T00:02:51.955Z,0.21
2023-12-21T00:05:36.346Z,0.23
2023-12-21T00:08:15.723Z,0.22
2023-12-21T00:10:55.036Z,0.19
2023-12-21T00:13:34.434Z,0.25
2023-12-21T00:16:14.909Z,0.23
2023-12-21T00:18:54.336Z,0.21
2023-12-21T00:21:38.775Z,0.23
2023-12-21T00:24:18.047Z,0.23
2023-12-21T00:26:57.304Z,0.15
2023-12-21T00:29:36.973Z,0.21
2023-12-21T00:32:16.285Z,0.23
2023-12-21T00:34:56.603Z,0.21
2023-12-21T00:37:41.057Z,0.24
2023-12-21T00:40:23.103Z,0.20
2023-12-21T00:43:02.461Z,0.35
2023-12-21T00:45:41.791Z,0.22
2023-12-21T00:48:21.728Z,0.17
2023-12-21T00:51:01.037Z,0.26
2023-12-21T00:53:45.385Z,0.23
2023-12-21T00:56:24.665Z,0.25
2023-12-21T00:59:06.485Z,0.21
2023-12-21T01:01:45.954Z,0.26
2023-12-21T01:04:25.562Z,0.20
2023-12-21T01:07:04.894Z,0.19
2023-12-21T01:09:49.627Z,0.13
2023-12-21T01:12:34.348Z,0.16
2023-12-21T01:15:15.123Z,0.11
2023-12-21T01:17:54.588Z,0.10
2023-12-21T01:20:33.966Z,0.10
2023-12-21T01:23:13.254Z,0.12
2023-12-21T01:25:57.602Z,0.07
2023-12-21T01:28:36.912Z,0.14
2023-12-21T01:31:16.373Z,0.10
2023-12-21T01:33:55.864Z,0.12
2023-12-21T01:36:35.213Z,0.13
2023-12-21T01:39:14.506Z,0.09
2023-12-21T01:41:58.894Z,0.08
2023-12-21T01:44:38.200Z,0.05
2023-12-21T01:47:18.641Z,0.07
2023-12-21T01:49:58.516Z,0.14
2023-12-21T01:52:38.413Z,0.12
2023-12-21T01:55:20.216Z,0.09
2023-12-21T01:58:06.065Z,0.10
2023-12-21T02:00:45.419Z,0.08
2023-12-21T02:03:28.642Z,0.07
2023-12-21T02:06:07.977Z,0.11
2023-12-21T02:08:47.301Z,0.09
2023-12-21T02:11:26.557Z,0.09
2023-12-21T02:14:12.102Z,0.08
2023-12-21T02:17:03.891Z,0.09
2023-12-21T02:19:43.564Z,0.10
2023-12-21T02:22:24.557Z,0.08
2023-12-21T02:25:09.582Z,0.07
2023-12-21T02:27:48.956Z,0.11
2023-12-21T02:30:28.291Z,0.06
2023-12-21T02:33:07.637Z,0.09
2023-12-21T02:35:46.910Z,0.12
2023-12-21T02:38:26.178Z,0.05
2023-12-21T02:41:10.618Z,0.11
2023-12-21T02:43:49.975Z,0.05
2023-12-21T02:46:32.141Z,0.07
2023-12-21T02:49:11.552Z,0.08
2023-12-21T02:51:51.018Z,0.12
2023-12-21T02:54:30.334Z,0.05
2023-12-21T02:57:14.701Z,0.09
2023-12-21T02:59:54.029Z,0.07
2023-12-21T03:02:33.903Z,0.10
2023-12-21T03:05:14.503Z,0.08
2023-12-21T03:07:56.269Z,0.13
2023-12-21T03:10:35.551Z,0.07
2023-12-21T03:13:20.119Z,0.11
2023-12-21T03:15:59.482Z,0.09
2023-12-21T03:18:39.240Z,0.11
2023-12-21T03:21:18.627Z,0.08
2023-12-21T03:23:58.948Z,0.12
2023-12-21T03:26:39.048Z,0.09
2023-12-21T03:29:23.490Z,0.08
2023-12-21T03:32:02.816Z,0.07
2023-12-21T03:34:42.654Z,0.07
2023-12-21T03:37:21.973Z,0.10
2023-12-21T03:40:01.522Z,0.08
2023-12-21T03:42:40.828Z,0.13
2023-12-21T03:45:26.077Z,0.10
2023-12-21T03:48:05.352Z,0.06
2023-12-21T03:50:45.480Z,0.08
2023-12-21T03:53:24.819Z,0.10
2023-12-21T03:56:04.121Z,0.08
2023-12-21T03:58:44.602Z,0.06
2023-12-21T04:01:37.044Z,0.13
2023-12-21T04:04:16.425Z,0.06
2023-12-21T04:06:55.764Z,0.09
2023-12-21T04:09:35.145Z,0.08
2023-12-21T04:12:15.639Z,0.06
2023-12-21T04:14:54.954Z,0.10
2023-12-21T04:17:39.391Z,0.11
2023-12-21T04:20:19.728Z,0.12
2023-12-21T04:22:58.976Z,0.12
2023-12-21T04:25:38.386Z,0.08
2023-12-21T04:28:17.731Z,0.07
2023-12-21T04:30:57.200Z,0.09
2023-12-21T04:33:42.034Z,0.11
2023-12-21T04:36:25.453Z,0.09
2023-12-21T04:39:05.769Z,0.07
2023-12-21T04:41:45.120Z,0.10
2023-12-21T04:44:24.690Z,0.10
2023-12-21T04:47:04.533Z,0.11
2023-12-21T04:49:49.002Z,0.09
2023-12-21T04:52:28.641Z,0.12
2023-12-21T04:55:08.053Z,0.11
2023-12-21T04:57:47.416Z,0.08
2023-12-21T05:00:28.324Z,0.12
2023-12-21T05:03:07.783Z,0.07
2023-12-21T05:05:52.358Z,0.09
2023-12-21T05:08:31.650Z,0.09
2023-12-21T05:11:10.972Z,0.09
2023-12-21T05:13:50.236Z,0.04
2023-12-21T05:16:29.797Z,0.12
2023-12-21T05:19:09.357Z,0.06
2023-12-21T05:21:53.829Z,0.09
2023-12-21T05:24:33.192Z,0.24
2023-12-21T05:27:13.913Z,0.10
2023-12-21T05:29:53.222Z,0.17
2023-12-21T05:32:32.922Z,0.08
2023-12-21T05:35:13.453Z,0.12
2023-12-21T05:37:57.903Z,0.13
2023-12-21T05:40:37.239Z,0.09
2023-12-21T05:43:16.553Z,0.15
2023-12-21T05:45:56.179Z,0.06
2023-12-21T05:48:35.488Z,0.05
2023-12-21T05:51:14.829Z,0.12
2023-12-21T05:53:59.388Z,0.15
2023-12-21T05:56:38.889Z,0.17
2023-12-21T05:59:18.653Z,0.13
2023-12-21T06:01:58.079Z,0.18
2023-12-21T06:04:38.011Z,0.18
2023-12-21T06:07:17.427Z,0.13
2023-12-21T06:10:01.934Z,0.12
2023-12-21T06:12:41.363Z,0.08
2023-12-21T06:15:21.803Z,0.15
2023-12-21T06:18:01.123Z,0.11
2023-12-21T06:20:40.503Z,0.09
2023-12-21T06:23:19.792Z,0.09
2023-12-21T06:26:04.199Z,0.29
2023-12-21T06:28:43.579Z,0.11
2023-12-21T06:31:22.909Z,0.18
2023-12-21T06:34:02.457Z,0.12
2023-12-21T06:36:41.783Z,0.18
2023-12-21T06:39:21.399Z,0.12
2023-12-21T06:42:06.285Z,0.17
2023-12-21T06:44:45.564Z,0.17
2023-12-21T06:47:24.924Z,0.21
2023-12-21T06:50:05.478Z,0.16
2023-12-21T06:52:45.172Z,0.10
2023-12-21T06:55:25.175Z,0.10
2023-12-21T06:58:09.813Z,0.07
2023-12-21T07:00:49.804Z,0.12
2023-12-21T07:03:29.412Z,0.12
2023-12-21T07:06:09.170Z,0.12
2023-12-21T07:08:48.657Z,0.07
2023-12-21T07:11:28.021Z,0.22
2023-12-21T07:14:12.459Z,0.15
2023-12-21T07:16:51.835Z,0.06
2023-12-21T07:19:31.097Z,0.09
2023-12-21T07:22:10.746Z,0.09
2023-12-21T07:24:50.079Z,0.15
2023-12-21T07:27:29.375Z,0.06
2023-12-21T07:30:15.539Z,0.06
2023-12-21T07:32:55.038Z,0.08
2023-12-21T07:35:34.378Z,0.07
2023-12-21T07:38:14.589Z,0.05
2023-12-21T07:40:54.365Z,0.08
2023-12-21T07:43:33.700Z,0.02
2023-12-21T07:46:18.124Z,0.12
2023-12-21T07:48:57.584Z,0.04
2023-12-21T07:51:36.925Z,0.08
2023-12-21T07:54:16.218Z,0.05
2023-12-21T07:56:56.101Z,0.10
2023-12-21T07:59:35.454Z,0.11
2023-12-21T08:02:19.991Z,0.06
2023-12-21T08:04:59.381Z,0.05
2023-12-21T08:07:38.817Z,0.03
2023-12-21T08:10:18.241Z,0.06
2023-12-21T08:12:57.578Z,0.04
2023-12-21T08:15:36.958Z,0.03
2023-12-21T08:18:21.595Z,0.04
2023-12-21T08:21:01.154Z,0.06
2023-12-21T08:23:40.495Z,0.07
2023-12-21T08:26:19.946Z,0.14
2023-12-21T08:28:59.509Z,0.06
2023-12-21T08:31:38.901Z,0.08
2023-12-21T08:34:24.932Z,0.05
2023-12-21T08:37:04.297Z,0.04
2023-12-21T08:39:43.666Z,0.06
2023-12-21T08:42:22.991Z,0.05
2023-12-21T08:45:02.330Z,0.10
2023-12-21T08:47:43.424Z,0.11
2023-12-21T08:50:27.925Z,0.10
2023-12-21T08:53:07.540Z,0.08
2023-12-21T08:55:47.108Z,0.12
2023-12-21T08:58:26.508Z,0.06
2023-12-21T09:01:06.473Z,0.10
2023-12-21T09:03:46.230Z,0.08
2023-12-21T09:06:30.592Z,0.08
2023-12-21T09:09:11.533Z,0.14
2023-12-21T09:11:51.729Z,0.23
2023-12-21T09:14:31.031Z,0.22
2023-12-21T09:17:10.415Z,0.19
2023-12-21T09:19:50.708Z,0.04
2023-12-21T09:22:35.172Z,0.25
2023-12-21T09:25:15.587Z,0.09
2023-12-21T09:27:56.008Z,0.11
2023-12-21T09:30:35.359Z,0.11
2023-12-21T09:33:15.255Z,0.03
2023-12-21T09:35:57.075Z,0.06
2023-12-21T09:38:41.431Z,0.05
2023-12-21T09:41:21.428Z,0.05
2023-12-21T09:44:02.610Z,0.10
2023-12-21T09:46:42.153Z,0.06
2023-12-21T09:49:22.262Z,0.07
2023-12-21T09:52:02.649Z,0.21
2023-12-21T09:54:49.905Z,0.13
2023-12-21T09:57:30.748Z,0.04
2023-12-21T10:00:11.740Z,0.12
2023-12-21T10:02:51.355Z,0.06
2023-12-21T10:05:30.747Z,0.05
2023-12-21T10:08:11.130Z,0.08
2023-12-21T10:10:55.760Z,0.07
2023-12-21T10:13:35.399Z,0.12
2023-12-21T10:16:15.389Z,0.11
2023-12-21T10:18:54.769Z,0.05
2023-12-21T10:21:34.728Z,0.11
2023-12-21T10:24:14.818Z,0.12
2023-12-21T10:26:59.876Z,0.66
2023-12-21T10:29:39.122Z,0.16
2023-12-21T10:32:18.407Z,0.20
2023-12-21T10:35:01.035Z,0.65
2023-12-21T10:37:41.762Z,0.23
2023-12-21T10:40:21.551Z,0.25
2023-12-21T10:43:06.735Z,0.29
2023-12-21T10:45:46.400Z,0.14
2023-12-21T10:48:28.734Z,0.12
2023-12-21T10:51:09.755Z,0.27
2023-12-21T10:53:51.443Z,0.08
2023-12-21T10:56:33.754Z,0.15
2023-12-21T10:59:22.210Z,0.14
2023-12-21T11:02:03.290Z,0.11
2023-12-21T11:04:46.486Z,0.08
2023-12-21T11:07:28.482Z,0.10
2023-12-21T11:10:09.880Z,0.08
2023-12-21T11:12:50.122Z,0.04
2023-12-21T11:15:35.051Z,0.16
2023-12-21T11:18:20.131Z,0.34
2023-12-21T11:21:05.490Z,0.06
2023-12-21T11:23:49.217Z,0.16
2023-12-21T11:26:30.429Z,0.05
2023-12-21T11:29:13.090Z,0.14
2023-12-21T11:31:57.920Z,0.20
2023-12-21T11:34:44.723Z,0.07
2023-12-21T11:37:29.319Z,0.08
2023-12-21T11:40:13.502Z,0.10
2023-12-21T11:42:54.624Z,0.08
2023-12-21T11:45:37.414Z,0.08
2023-12-21T11:48:22.986Z,0.14
2023-12-21T11:51:09.178Z,0.04
2023-12-21T11:53:48.772Z,0.11
2023-12-21T11:56:28.357Z,0.09
2023-12-21T11:59:08.939Z,0.04
2023-12-21T12:01:49.510Z,0.12
2023-12-21T12:04:33.987Z,0.07
2023-12-21T12:07:13.534Z,0.13
2023-12-21T12:09:53.861Z,0.10
2023-12-21T12:12:33.275Z,0.04
2023-12-21T12:15:13.505Z,0.19
2023-12-21T12:17:53.212Z,0.05
2023-12-21T12:20:37.843Z,0.09
2023-12-21T12:23:17.294Z,0.06
2023-12-21T12:25:56.794Z,0.08
2023-12-21T12:28:36.510Z,0.24
2023-12-21T12:31:16.762Z,0.02
2023-12-21T12:33:56.476Z,0.65
2023-12-21T12:36:40.872Z,0.10
2023-12-21T12:39:20.509Z,0.14
2023-12-21T12:42:05.753Z,0.11
2023-12-21T12:44:45.099Z,0.12
2023-12-21T12:47:25.307Z,0.13
2023-12-21T12:50:06.083Z,0.15
2023-12-21T12:52:53.598Z,0.15
2023-12-21T12:55:32.926Z,0.07
2023-12-21T12:58:12.972Z,0.08
2023-12-21T13:00:52.634Z,0.08
2023-12-21T13:03:33.295Z,0.15
2023-12-21T13:06:18.349Z,0.11
2023-12-21T13:09:03.441Z,0.27
2023-12-21T13:11:42.827Z,0.20
2023-12-21T13:14:22.237Z,0.15
2023-12-21T13:17:01.586Z,0.20
2023-12-21T13:19:40.990Z,0.26
2023-12-21T13:22:20.419Z,0.18
2023-12-21T13:25:04.894Z,0.16
2023-12-21T13:27:44.402Z,0.14
2023-12-21T13:30:25.517Z,0.13
2023-12-21T13:33:05.234Z,0.14
2023-12-21T13:35:44.674Z,0.18
2023-12-21T13:38:23.987Z,0.08
2023-12-21T13:41:10.913Z,0.06
2023-12-21T13:43:53.469Z,0.04
2023-12-21T13:46:33.257Z,0.17
2023-12-21T13:49:12.700Z,0.16
2023-12-21T13:51:54.411Z,0.12
2023-12-21T13:54:35.246Z,0.41
2023-12-21T13:57:20.405Z,0.46
2023-12-21T14:00:01.174Z,0.09
2023-12-21T14:02:40.491Z,0.14
2023-12-21T14:05:20.161Z,0.13
2023-12-21T14:07:59.644Z,0.11
2023-12-21T14:10:39.016Z,0.13
2023-12-21T14:13:23.430Z,0.13
2023-12-21T14:16:03.052Z,0.14
2023-12-21T14:18:42.442Z,0.25
2023-12-21T14:21:21.835Z,0.79
2023-12-21T14:23:56.076Z,1.14
2023-12-21T14:26:35.451Z,2.30
2023-12-21T14:29:19.906Z,1.70
2023-12-21T14:31:59.285Z,1.05
2023-12-21T14:34:38.725Z,0.47
2023-12-21T14:37:18.785Z,0.57
2023-12-21T14:39:58.077Z,0.34
2023-12-21T14:42:37.430Z,0.12
2023-12-21T14:45:22.587Z,0.16
2023-12-21T14:48:01.913Z,0.10
2023-12-21T14:50:41.259Z,0.13
2023-12-21T14:53:20.999Z,0.12
2023-12-21T14:56:00.327Z,0.12
2023-12-21T14:58:40.002Z,0.54
2023-12-21T15:01:24.502Z,0.13
2023-12-21T15:04:04.051Z,0.21
2023-12-21T15:06:43.503Z,0.31
2023-12-21T15:09:22.850Z,0.26
2023-12-21T15:12:02.110Z,0.19
2023-12-21T15:14:41.483Z,0.32
2023-12-21T15:17:26.132Z,0.21
2023-12-21T15:20:05.995Z,0.20
2023-12-21T15:22:48.954Z,0.20
2023-12-21T15:25:28.382Z,0.13
2023-12-21T15:28:08.154Z,0.20
2023-12-21T15:30:48.151Z,0.11
2023-12-21T15:33:32.523Z,0.15
2023-12-21T15:36:13.644Z,0.24
2023-12-21T15:38:52.912Z,0.21
2023-12-21T15:41:32.225Z,0.12
2023-12-21T15:44:11.805Z,0.07
2023-12-21T15:46:51.212Z,0.13
2023-12-21T15:49:35.672Z,0.12
2023-12-21T15:52:15.034Z,0.11
2023-12-21T15:54:54.437Z,0.25
2023-12-21T15:57:34.985Z,0.41
2023-12-21T16:00:19.489Z,0.26
2023-12-21T16:02:58.763Z,0.48
2023-12-21T16:05:43.394Z,0.23
2023-12-21T16:08:23.046Z,0.31
2023-12-21T16:11:02.320Z,0.30
2023-12-21T16:13:41.700Z,0.45
2023-12-21T16:16:21.161Z,0.27
2023-12-21T16:19:00.647Z,0.22
2023-12-21T16:21:45.100Z,0.24
2023-12-21T16:24:27.692Z,0.20
2023-12-21T16:27:08.739Z,0.21
2023-12-21T16:29:48.890Z,0.18
2023-12-21T16:32:28.292Z,0.23
2023-12-21T16:35:08.102Z,0.15
2023-12-21T16:37:54.169Z,0.19
2023-12-21T16:40:33.548Z,0.21
2023-12-21T16:43:12.917Z,0.27
2023-12-21T16:45:52.377Z,0.29
2023-12-21T16:48:31.916Z,0.21
2023-12-21T16:51:12.799Z,0.21
2023-12-21T16:53:57.346Z,0.12
2023-12-21T16:56:36.832Z,0.45
2023-12-21T16:59:16.099Z,0.39
2023-12-21T17:01:56.180Z,0.37
2023-12-21T17:04:35.735Z,0.22
2023-12-21T17:07:15.124Z,0.33
2023-12-21T17:09:59.537Z,0.20
2023-12-21T17:12:39.687Z,0.26
2023-12-21T17:15:19.181Z,0.54
2023-12-21T17:18:00.535Z,1.12
2023-12-21T17:20:40.073Z,0.96
2023-12-21T17:23:19.429Z,0.52
2023-12-21T17:26:03.796Z,0.65
2023-12-21T17:28:43.712Z,0.44
2023-12-21T17:31:23.119Z,0.37
2023-12-21T17:34:04.787Z,0.26
2023-12-21T17:36:44.378Z,0.33
2023-12-21T17:39:23.642Z,0.26
2023-12-21T17:42:07.963Z,0.20
2023-12-21T17:44:47.293Z,0.29
2023-12-21T17:47:26.597Z,0.23
2023-12-21T17:50:06.522Z,0.34
2023-12-21T17:52:46.149Z,0.27
2023-12-21T17:55:25.520Z,0.34
2023-12-21T17:58:09.928Z,0.37
2023-12-21T18:00:49.336Z,0.38
2023-12-21T18:03:30.707Z,0.39
2023-12-21T18:06:09.997Z,0.26
2023-12-21T18:08:49.236Z,0.41
2023-12-21T18:11:30.658Z,0.64
2023-12-21T18:14:15.146Z,0.43
2023-12-21T18:16:55.545Z,0.35
2023-12-21T18:19:35.095Z,0.42
2023-12-21T18:22:15.957Z,0.47
2023-12-21T18:24:55.612Z,0.43
2023-12-21T18:27:34.922Z,0.49
2023-12-21T18:30:20.741Z,0.43
2023-12-21T18:33:00.549Z,0.35
2023-12-21T18:35:40.645Z,0.33
2023-12-21T18:38:19.899Z,0.39
2023-12-21T18:40:59.450Z,0.43
2023-12-21T18:43:38.758Z,0.46
2023-12-21T18:46:23.327Z,0.41
2023-12-21T18:49:02.601Z,0.32
2023-12-21T18:51:41.973Z,0.43
2023-12-21T18:54:22.045Z,0.48
2023-12-21T18:57:01.373Z,0.44
2023-12-21T18:59:40.652Z,0.37
2023-12-21T19:02:25.027Z,0.34
2023-12-21T19:05:04.966Z,0.38
2023-12-21T19:07:44.699Z,0.43
2023-12-21T19:10:24.235Z,0.51
2023-12-21T19:13:04.396Z,0.35
2023-12-21T19:15:47.634Z,0.35
2023-12-21T19:18:32.152Z,0.35
2023-12-21T19:21:15.722Z,0.44
2023-12-21T19:23:56.191Z,0.34
2023-12-21T19:26:35.426Z,0.23
2023-12-21T19:29:14.702Z,0.21
2023-12-21T19:31:54.003Z,0.33
2023-12-21T19:34:38.401Z,0.39
2023-12-21T19:37:17.911Z,0.35
2023-12-21T19:39:57.156Z,0.25
2023-12-21T19:42:36.511Z,0.25
2023-12-21T19:45:16.637Z,0.55
2023-12-21T19:47:55.883Z,0.46
2023-12-21T19:50:42.779Z,0.57
2023-12-21T19:53:24.175Z,0.77
2023-12-21T19:56:03.892Z,0.47
2023-12-21T19:58:43.220Z,0.26
2023-12-21T20:01:22.603Z,0.38
2023-12-21T20:04:01.905Z,0.37
2023-12-21T20:06:46.438Z,0.56
2023-12-21T20:09:25.846Z,0.37
2023-12-21T20:12:05.140Z,0.38
2023-12-21T20:14:44.692Z,0.54
2023-12-21T20:17:24.013Z,4.43
2023-12-21T20:20:03.407Z,2.27
2023-12-21T20:22:48.060Z,1.17
2023-12-21T20:25:27.657Z,0.84
2023-12-21T20:28:09.782Z,0.75
2023-12-21T20:30:49.073Z,0.80
2023-12-21T20:33:29.985Z,1.59
2023-12-21T20:36:09.462Z,1.24
2023-12-21T20:38:53.876Z,1.01
2023-12-21T20:41:33.221Z,0.46
2023-12-21T20:44:12.681Z,0.57
2023-12-21T20:46:52.415Z,0.24
2023-12-21T20:49:32.734Z,0.29
2023-12-21T20:52:12.742Z,0.18
2023-12-21T20:54:58.169Z,0.26
2023-12-21T20:57:37.450Z,0.16
2023-12-21T21:00:18.766Z,0.28
2023-12-21T21:02:58.090Z,0.23
2023-12-21T21:05:37.413Z,0.18
2023-12-21T21:08:16.859Z,0.29
2023-12-21T21:11:01.808Z,0.31
2023-12-21T21:13:41.485Z,0.39
2023-12-21T21:16:22.644Z,0.29
2023-12-21T21:19:02.822Z,0.29
2023-12-21T21:21:42.690Z,0.21
2023-12-21T21:24:22.288Z,0.21
2023-12-21T21:27:06.642Z,0.23
2023-12-21T21:29:45.916Z,0.21
2023-12-21T21:32:25.346Z,0.30
2023-12-21T21:35:05.242Z,0.21
2023-12-21T21:37:44.617Z,0.28
2023-12-21T21:40:24.157Z,0.33
2023-12-21T21:43:08.519Z,0.26
2023-12-21T21:45:47.923Z,0.37
2023-12-21T21:48:27.302Z,0.39
2023-12-21T21:51:06.597Z,0.35
2023-12-21T21:53:45.849Z,0.37
2023-12-21T21:56:25.179Z,0.44
2023-12-21T21:59:09.504Z,0.37
2023-12-21T22:01:52.763Z,0.42
2023-12-21T22:04:32.202Z,0.54
2023-12-21T22:07:11.969Z,0.44
2023-12-21T22:09:51.232Z,0.58
2023-12-21T22:12:30.575Z,0.52
2023-12-21T22:15:15.400Z,0.43
2023-12-21T22:17:54.724Z,0.49
2023-12-21T22:20:35.299Z,0.48
2023-12-21T22:23:14.708Z,0.63
2023-12-21T22:25:54.016Z,0.59
2023-12-21T22:28:33.344Z,0.53
2023-12-21T22:31:18.185Z,0.45
2023-12-21T22:33:58.631Z,0.49
2023-12-21T22:36:39.102Z,0.43
2023-12-21T22:39:18.645Z,0.70
2023-12-21T22:41:57.948Z,0.64
2023-12-21T22:44:37.250Z,0.57
2023-12-21T22:47:23.378Z,0.63
2023-12-21T22:50:03.754Z,0.56
2023-12-21T22:52:43.418Z,0.94
2023-12-21T22:55:22.728Z,0.91
2023-12-21T22:58:02.117Z,0.76
2023-12-21T23:00:41.420Z,0.96
2023-12-21T23:03:25.841Z,0.72
2023-12-21T23:06:05.103Z,0.86
2023-12-21T23:08:44.554Z,0.92
2023-12-21T23:11:23.825Z,0.79
2023-12-21T23:14:03.222Z,0.69
2023-12-21T23:16:42.527Z,0.79
2023-12-21T23:19:26.915Z,0.85
2023-12-21T23:22:06.209Z,0.92
2023-12-21T23:24:45.475Z,0.89
2023-12-21T23:27:24.757Z,0.71
2023-12-21T23:30:05.084Z,0.58
2023-12-21T23:32:44.471Z,0.85
2023-12-21T23:35:28.884Z,0.68
2023-12-21T23:38:08.219Z,0.64
2023-12-21T23:40:47.697Z,0.81
2023-12-21T23:43:27.036Z,0.67
2023-12-21T23:46:06.497Z,0.62
2023-12-21T23:48:46.479Z,0.72
2023-12-21T23:51:30.856Z,0.51
2023-12-21T23:54:10.147Z,0.42
2023-12-21T23:56:49.465Z,0.42
2023-12-21T23:59:28.721Z,0.58
